sensor_id;sensor_type;location;lat;lon;timestamp;pressure;altitude;pressure_sealevel;temperature;humidity
71573;BME280;59408;51.032;9.410;2024-03-08T00:01:32;99365.25;;;-1.72;100.00
71573;BME280;59408;51.032;9.410;2024-03-08T00:03:58;99359.63;;;-1.76;100.00
71573;BME280;59408;51.032;9.410;2024-03-08T00:06:26;99358.25;;;-1.79;100.00
71573;BME280;59408;51.032;9.410;2024-03-08T00:08:52;99353.13;;;-1.80;100.00
71573;BME280;59408;51.032;9.410;2024-03-08T00:11:19;99351.22;;;-1.85;100.00
71573;BME280;59408;51.032;9.410;2024-03-08T00:13:46;99354.88;;;-1.91;100.00
71573;BME280;59408;51.032;9.410;2024-03-08T00:16:12;99351.09;;;-1.95;100.00
71573;BME280;59408;51.032;9.410;2024-03-08T00:18:38;99350.25;;;-2.00;100.00
71573;BME280;59408;51.032;9.410;2024-03-08T00:21:05;99347.25;;;-2.04;100.00
71573;BME280;59408;51.032;9.410;2024-03-08T00:23:33;99343.78;;;-2.04;100.00
71573;BME280;59408;51.032;9.410;2024-03-08T00:25:59;99341.91;;;-2.04;100.00
71573;BME280;59408;51.032;9.410;2024-03-08T00:28:26;99338.19;;;-2.03;100.00
71573;BME280;59408;51.032;9.410;2024-03-08T00:30:52;99342.72;;;-2.03;100.00
71573;BME280;59408;51.032;9.410;2024-03-08T00:33:19;99335.75;;;-2.04;100.00
71573;BME280;59408;51.032;9.410;2024-03-08T00:35:45;99329.16;;;-1.97;100.00
71573;BME280;59408;51.032;9.410;2024-03-08T00:38:12;99333.78;;;-1.92;100.00
71573;BME280;59408;51.032;9.410;2024-03-08T00:40:40;99328.09;;;-1.96;100.00
71573;BME280;59408;51.032;9.410;2024-03-08T00:43:06;99328.09;;;-1.96;100.00
71573;BME280;59408;51.032;9.410;2024-03-08T00:45:33;99327.84;;;-1.94;100.00
71573;BME280;59408;51.032;9.410;2024-03-08T00:47:59;99321.69;;;-1.95;100.00
71573;BME280;59408;51.032;9.410;2024-03-08T00:50:26;99323.25;;;-1.99;100.00
71573;BME280;59408;51.032;9.410;2024-03-08T00:52:52;99314.69;;;-2.01;100.00
71573;BME280;59408;51.032;9.410;2024-03-08T00:55:19;99316.25;;;-2.05;100.00
71573;BME280;59408;51.032;9.410;2024-03-08T00:57:47;99314.34;;;-2.09;100.00
71573;BME280;59408;51.032;9.410;2024-03-08T01:00:14;99314.25;;;-2.15;100.00
71573;BME280;59408;51.032;9.410;2024-03-08T01:02:40;99314.81;;;-2.13;100.00
71573;BME280;59408;51.032;9.410;2024-03-08T01:05:07;99306.22;;;-2.15;100.00
71573;BME280;59408;51.032;9.410;2024-03-08T01:07:34;99299.59;;;-2.12;100.00
71573;BME280;59408;51.032;9.410;2024-03-08T01:10:01;99295.09;;;-2.06;100.00
71573;BME280;59408;51.032;9.410;2024-03-08T01:12:27;99296.91;;;-2.12;100.00
71573;BME280;59408;51.032;9.410;2024-03-08T01:14:55;99293.19;;;-2.11;100.00
71573;BME280;59408;51.032;9.410;2024-03-08T01:17:22;99293.72;;;-2.09;100.00
71573;BME280;59408;51.032;9.410;2024-03-08T01:19:48;99291.06;;;-2.09;100.00
71573;BME280;59408;51.032;9.410;2024-03-08T01:22:15;99275.34;;;-2.05;100.00
71573;BME280;59408;51.032;9.410;2024-03-08T01:24:41;99278.59;;;-2.03;100.00
71573;BME280;59408;51.032;9.410;2024-03-08T01:27:08;99275.91;;;-2.03;100.00
71573;BME280;59408;51.032;9.410;2024-03-08T01:29:34;99269.50;;;-2.02;100.00
71573;BME280;59408;51.032;9.410;2024-03-08T01:32:03;99268.69;;;-2.03;100.00
71573;BME280;59408;51.032;9.410;2024-03-08T01:34:29;99267.13;;;-1.99;100.00
71573;BME280;59408;51.032;9.410;2024-03-08T01:36:56;99263.91;;;-2.01;100.00
71573;BME280;59408;51.032;9.410;2024-03-08T01:39:22;99267.13;;;-1.99;100.00
71573;BME280;59408;51.032;9.410;2024-03-08T01:41:48;99258.56;;;-2.01;100.00
71573;BME280;59408;51.032;9.410;2024-03-08T01:44:15;99261.78;;;-1.99;100.00
71573;BME280;59408;51.032;9.410;2024-03-08T01:46:41;99257.31;;;-1.93;100.00
71573;BME280;59408;51.032;9.410;2024-03-08T01:49:09;99253.50;;;-1.97;100.00
71573;BME280;59408;51.032;9.410;2024-03-08T01:51:36;99242.25;;;-1.99;100.00
71573;BME280;59408;51.032;9.410;2024-03-08T01:54:04;99245.22;;;-2.01;100.00
71573;BME280;59408;51.032;9.410;2024-03-08T01:56:30;99240.34;;;-2.04;100.00
71573;BME280;59408;51.032;9.410;2024-03-08T01:58:57;99233.41;;;-2.05;100.00
71573;BME280;59408;51.032;9.410;2024-03-08T02:01:25;99233.66;;;-2.06;100.00
71573;BME280;59408;51.032;9.410;2024-03-08T02:03:52;99222.72;;;-2.05;100.00
71573;BME280;59408;51.032;9.410;2024-03-08T02:06:20;99223.84;;;-2.01;100.00
71573;BME280;59408;51.032;9.410;2024-03-08T02:08:47;99219.22;;;-2.05;100.00
71573;BME280;59408;51.032;9.410;2024-03-08T02:11:13;99217.31;;;-2.10;100.00
71573;BME280;59408;51.032;9.410;2024-03-08T02:13:41;99211.69;;;-2.08;100.00
71573;BME280;59408;51.032;9.410;2024-03-08T02:16:07;99213.56;;;-2.09;100.00
71573;BME280;59408;51.032;9.410;2024-03-08T02:18:34;99213.28;;;-2.13;100.00
71573;BME280;59408;51.032;9.410;2024-03-08T02:21:04;99215.16;;;-2.13;100.00
71573;BME280;59408;51.032;9.410;2024-03-08T02:23:32;99209.47;;;-2.17;100.00
71573;BME280;59408;51.032;9.410;2024-03-08T02:25:58;99209.00;;;-2.14;100.00
71573;BME280;59408;51.032;9.410;2024-03-08T02:28:25;99202.84;;;-2.14;100.00
71573;BME280;59408;51.032;9.410;2024-03-08T02:30:52;99199.13;;;-2.13;100.00
71573;BME280;59408;51.032;9.410;2024-03-08T02:33:18;99198.06;;;-2.12;100.00
71573;BME280;59408;51.032;9.410;2024-03-08T02:35:45;99195.13;;;-2.10;100.00
71573;BME280;59408;51.032;9.410;2024-03-08T02:38:15;99194.13;;;-2.04;100.00
71573;BME280;59408;51.032;9.410;2024-03-08T02:40:42;99188.81;;;-1.99;100.00
71573;BME280;59408;51.032;9.410;2024-03-08T02:43:08;99188.56;;;-1.98;100.00
71573;BME280;59408;51.032;9.410;2024-03-08T02:45:35;99190.19;;;-1.97;100.00
71573;BME280;59408;51.032;9.410;2024-03-08T02:48:02;99177.06;;;-1.98;100.00
71573;BME280;59408;51.032;9.410;2024-03-08T02:50:29;99181.34;;;-1.97;100.00
71573;BME280;59408;51.032;9.410;2024-03-08T02:52:55;99180.78;;;-1.99;100.00
71573;BME280;59408;51.032;9.410;2024-03-08T02:55:23;99173.88;;;-2.00;100.00
71573;BME280;59408;51.032;9.410;2024-03-08T02:57:49;99168.25;;;-1.99;100.00
71573;BME280;59408;51.032;9.410;2024-03-08T03:00:16;99178.41;;;-2.01;100.00
71573;BME280;59408;51.032;9.410;2024-03-08T03:02:43;99176.00;;;-1.97;100.00
71573;BME280;59408;51.032;9.410;2024-03-08T03:05:09;99177.06;;;-1.98;100.00
71573;BME280;59408;51.032;9.410;2024-03-08T03:07:36;99174.38;;;-1.98;100.00
71573;BME280;59408;51.032;9.410;2024-03-08T03:10:03;99177.59;;;-2.01;100.00
71573;BME280;59408;51.032;9.410;2024-03-08T03:12:31;99181.06;;;-2.01;100.00
71573;BME280;59408;51.032;9.410;2024-03-08T03:14:57;99171.19;;;-2.00;100.00
71573;BME280;59408;51.032;9.410;2024-03-08T03:17:24;99171.94;;;-2.05;100.00
71573;BME280;59408;51.032;9.410;2024-03-08T03:19:51;99172.75;;;-2.04;100.00
71573;BME280;59408;51.032;9.410;2024-03-08T03:22:18;99172.50;;;-2.03;100.00
71573;BME280;59408;51.032;9.410;2024-03-08T03:24:45;99167.88;;;-2.07;100.00
71573;BME280;59408;51.032;9.410;2024-03-08T03:27:11;99176.44;;;-2.10;100.00
71573;BME280;59408;51.032;9.410;2024-03-08T03:29:40;99169.72;;;-2.13;100.00
71573;BME280;59408;51.032;9.410;2024-03-08T03:32:07;99165.44;;;-2.14;100.00
71573;BME280;59408;51.032;9.410;2024-03-08T03:34:34;99163.00;;;-2.16;100.00
71573;BME280;59408;51.032;9.410;2024-03-08T03:37:00;99167.06;;;-2.13;100.00
71573;BME280;59408;51.032;9.410;2024-03-08T03:39:26;99166.25;;;-2.14;100.00
71573;BME280;59408;51.032;9.410;2024-03-08T03:41:53;99157.09;;;-2.18;100.00
71573;BME280;59408;51.032;9.410;2024-03-08T03:44:19;99156.00;;;-2.22;100.00
71573;BME280;59408;51.032;9.410;2024-03-08T03:46:47;99153.03;;;-2.25;100.00
71573;BME280;59408;51.032;9.410;2024-03-08T03:49:13;99154.09;;;-2.26;100.00
71573;BME280;59408;51.032;9.410;2024-03-08T03:51:40;99155.69;;;-2.25;100.00
71573;BME280;59408;51.032;9.410;2024-03-08T03:54:06;99150.59;;;-2.27;100.00
71573;BME280;59408;51.032;9.410;2024-03-08T03:56:33;99152.22;;;-2.26;100.00
71573;BME280;59408;51.032;9.410;2024-03-08T03:58:59;99150.59;;;-2.27;100.00
71573;BME280;59408;51.032;9.410;2024-03-08T04:01:26;99146.06;;;-2.26;100.00
71573;BME280;59408;51.032;9.410;2024-03-08T04:03:54;99151.16;;;-2.25;100.00
71573;BME280;59408;51.032;9.410;2024-03-08T04:06:20;99153.34;;;-2.22;100.00
71573;BME280;59408;51.032;9.410;2024-03-08T04:08:47;99156.81;;;-2.21;100.00
71573;BME280;59408;51.032;9.410;2024-03-08T04:11:13;99142.66;;;-2.22;100.00
71573;BME280;59408;51.032;9.410;2024-03-08T04:13:40;99137.25;;;-2.27;100.00
71573;BME280;59408;51.032;9.410;2024-03-08T04:16:06;99140.47;;;-2.25;100.00
71573;BME280;59408;51.032;9.410;2024-03-08T04:18:33;99139.09;;;-2.27;100.00
71573;BME280;59408;51.032;9.410;2024-03-08T04:21:01;99138.59;;;-2.29;100.00
71573;BME280;59408;51.032;9.410;2024-03-08T04:23:27;99132.13;;;-2.33;100.00
71573;BME280;59408;51.032;9.410;2024-03-08T04:25:54;99135.84;;;-2.34;100.00
71573;BME280;59408;51.032;9.410;2024-03-08T04:28:20;99128.06;;;-2.36;100.00
71573;BME280;59408;51.032;9.410;2024-03-08T04:30:47;99124.34;;;-2.35;100.00
71573;BME280;59408;51.032;9.410;2024-03-08T04:33:13;99125.41;;;-2.36;100.00
71573;BME280;59408;51.032;9.410;2024-03-08T04:35:40;99124.06;;;-2.38;100.00
71573;BME280;59408;51.032;9.410;2024-03-08T04:38:08;99118.72;;;-2.38;100.00
71573;BME280;59408;51.032;9.410;2024-03-08T04:40:34;99120.06;;;-2.36;100.00
71573;BME280;59408;51.032;9.410;2024-03-08T04:43:01;99117.69;;;-2.37;100.00
71573;BME280;59408;51.032;9.410;2024-03-08T04:45:27;99107.47;;;-2.40;100.00
71573;BME280;59408;51.032;9.410;2024-03-08T04:47:54;99114.19;;;-2.38;100.00
71573;BME280;59408;51.032;9.410;2024-03-08T04:50:21;99109.09;;;-2.39;100.00
71573;BME280;59408;51.032;9.410;2024-03-08T04:52:47;99109.09;;;-2.39;100.00
71573;BME280;59408;51.032;9.410;2024-03-08T04:55:15;99117.69;;;-2.37;100.00
71573;BME280;59408;51.032;9.410;2024-03-08T04:57:41;99107.16;;;-2.44;100.00
71573;BME280;59408;51.032;9.410;2024-03-08T05:00:09;99105.53;;;-2.50;100.00
71573;BME280;59408;51.032;9.410;2024-03-08T05:02:36;99103.09;;;-2.52;100.00
71573;BME280;59408;51.032;9.410;2024-03-08T05:05:03;99107.63;;;-2.52;100.00
71573;BME280;59408;51.032;9.410;2024-03-08T05:07:29;99107.63;;;-2.52;100.00
71573;BME280;59408;51.032;9.410;2024-03-08T05:09:56;99100.91;;;-2.55;100.00
71573;BME280;59408;51.032;9.410;2024-03-08T05:12:24;99104.34;;;-2.59;100.00
71573;BME280;59408;51.032;9.410;2024-03-08T05:14:51;99107.00;;;-2.64;100.00
71573;BME280;59408;51.032;9.410;2024-03-08T05:17:17;99100.03;;;-2.65;100.00
71573;BME280;59408;51.032;9.410;2024-03-08T05:19:44;99110.16;;;-2.67;100.00
71573;BME280;59408;51.032;9.410;2024-03-08T05:22:11;99114.69;;;-2.68;100.00
71573;BME280;59408;51.032;9.410;2024-03-08T05:24:37;99110.63;;;-2.70;100.00
71573;BME280;59408;51.032;9.410;2024-03-08T05:27:04;99119.41;;;-2.75;100.00
71573;BME280;59408;51.032;9.410;2024-03-08T05:29:32;99115.31;;;-2.82;100.00
71573;BME280;59408;51.032;9.410;2024-03-08T05:31:58;99111.22;;;-2.90;100.00
71573;BME280;59408;51.032;9.410;2024-03-08T05:34:25;99107.94;;;-2.97;100.00
71573;BME280;59408;51.032;9.410;2024-03-08T05:36:51;99102.31;;;-3.01;100.00
71573;BME280;59408;51.032;9.410;2024-03-08T05:39:18;99103.84;;;-3.05;100.00
71573;BME280;59408;51.032;9.410;2024-03-08T05:41:45;99100.63;;;-3.07;100.00
71573;BME280;59408;51.032;9.410;2024-03-08T05:44:12;99101.41;;;-3.06;100.00
71573;BME280;59408;51.032;9.410;2024-03-08T05:46:40;99111.59;;;-3.03;100.00
71573;BME280;59408;51.032;9.410;2024-03-08T05:49:07;99103.09;;;-3.00;100.00
71573;BME280;59408;51.032;9.410;2024-03-08T05:51:34;99102.34;;;-2.96;100.00
71573;BME280;59408;51.032;9.410;2024-03-08T05:54:01;99097.59;;;-2.94;100.00
71573;BME280;59408;51.032;9.410;2024-03-08T05:56:28;99099.44;;;-2.94;100.00
71573;BME280;59408;51.032;9.410;2024-03-08T05:58:55;99101.78;;;-2.98;100.00
71573;BME280;59408;51.032;9.410;2024-03-08T06:01:22;99103.09;;;-3.00;100.00
71573;BME280;59408;51.032;9.410;2024-03-08T06:03:49;99098.75;;;-3.06;100.00
71573;BME280;59408;51.032;9.410;2024-03-08T06:06:16;99096.56;;;-3.09;100.00
71573;BME280;59408;51.032;9.410;2024-03-08T06:08:42;99103.22;;;-3.12;100.00
71573;BME280;59408;51.032;9.410;2024-03-08T06:11:09;99097.00;;;-3.17;100.00
71573;BME280;59408;51.032;9.410;2024-03-08T06:13:36;99101.81;;;-3.19;100.00
71573;BME280;59408;51.032;9.410;2024-03-08T06:16:02;99101.47;;;-3.23;100.00
71573;BME280;59408;51.032;9.410;2024-03-08T06:18:29;99095.59;;;-3.25;100.00
71573;BME280;59408;51.032;9.410;2024-03-08T06:20:57;99095.00;;;-3.27;100.00
71573;BME280;59408;51.032;9.410;2024-03-08T06:23:23;99099.31;;;-3.26;100.00
71573;BME280;59408;51.032;9.410;2024-03-08T06:25:50;99100.09;;;-3.26;100.00
71573;BME280;59408;51.032;9.410;2024-03-08T06:28:16;99100.09;;;-3.26;100.00
71573;BME280;59408;51.032;9.410;2024-03-08T06:30:43;99100.66;;;-3.23;100.00
71573;BME280;59408;51.032;9.410;2024-03-08T06:33:09;99102.84;;;-3.20;100.00
71573;BME280;59408;51.032;9.410;2024-03-08T06:35:35;99095.16;;;-3.17;100.00
71573;BME280;59408;51.032;9.410;2024-03-08T06:38:03;99099.19;;;-3.14;100.00
71573;BME280;59408;51.032;9.410;2024-03-08T06:40:30;99098.69;;;-3.11;100.00
71573;BME280;59408;51.032;9.410;2024-03-08T06:42:56;99095.53;;;-3.08;100.00
71573;BME280;59408;51.032;9.410;2024-03-08T06:45:23;99098.56;;;-3.00;100.00
71573;BME280;59408;51.032;9.410;2024-03-08T06:47:49;99100.97;;;-2.98;100.00
71573;BME280;59408;51.032;9.410;2024-03-08T06:50:16;99095.97;;;-2.95;100.00
71573;BME280;59408;51.032;9.410;2024-03-08T06:52:43;99099.00;;;-2.86;100.00
71573;BME280;59408;51.032;9.410;2024-03-08T06:55:10;99100.72;;;-2.75;100.00
71573;BME280;59408;51.032;9.410;2024-03-08T06:57:37;99107.22;;;-2.66;100.00
71573;BME280;59408;51.032;9.410;2024-03-08T07:00:05;99103.34;;;-2.53;100.00
71573;BME280;59408;51.032;9.410;2024-03-08T07:02:31;99098.09;;;-2.43;100.00
71573;BME280;59408;51.032;9.410;2024-03-08T07:04:58;99102.97;;;-2.35;100.00
71573;BME280;59408;51.032;9.410;2024-03-08T07:07:24;99104.13;;;-2.26;100.00
71573;BME280;59408;51.032;9.410;2024-03-08T07:09:51;99094.06;;;-2.19;100.00
71573;BME280;59408;51.032;9.410;2024-03-08T07:12:18;99100.25;;;-2.13;100.00
71573;BME280;59408;51.032;9.410;2024-03-08T07:14:45;99103.56;;;-2.01;100.00
71573;BME280;59408;51.032;9.410;2024-03-08T07:17:11;99100.69;;;-1.89;100.00
71573;BME280;59408;51.032;9.410;2024-03-08T07:19:38;99091.69;;;-1.83;100.00
71573;BME280;59408;51.032;9.410;2024-03-08T07:22:05;99098.97;;;-1.68;100.00
71573;BME280;59408;51.032;9.410;2024-03-08T07:24:31;99096.63;;;-1.60;100.00
71573;BME280;59408;51.032;9.410;2024-03-08T07:26:58;99092.97;;;-1.49;100.00
71573;BME280;59408;51.032;9.410;2024-03-08T07:29:25;99095.16;;;-1.35;100.00
71573;BME280;59408;51.032;9.410;2024-03-08T07:31:52;99092.03;;;-1.22;100.00
71573;BME280;59408;51.032;9.410;2024-03-08T07:34:18;99093.16;;;-1.08;100.00
71573;BME280;59408;51.032;9.410;2024-03-08T07:36:45;99086.22;;;-0.99;100.00
71573;BME280;59408;51.032;9.410;2024-03-08T07:39:11;99098.34;;;-0.86;100.00
71573;BME280;59408;51.032;9.410;2024-03-08T07:41:38;99084.97;;;-0.76;100.00
71573;BME280;59408;51.032;9.410;2024-03-08T07:44:05;99094.13;;;-0.67;100.00
71573;BME280;59408;51.032;9.410;2024-03-08T07:46:32;99082.88;;;-0.59;100.00
71573;BME280;59408;51.032;9.410;2024-03-08T07:48:59;99079.41;;;-0.49;100.00
71573;BME280;59408;51.032;9.410;2024-03-08T07:51:26;99081.84;;;-0.38;100.00
71573;BME280;59408;51.032;9.410;2024-03-08T07:53:52;99076.78;;;-0.29;100.00
71573;BME280;59408;51.032;9.410;2024-03-08T07:56:19;99079.72;;;-0.20;100.00
71573;BME280;59408;51.032;9.410;2024-03-08T07:58:45;99077.84;;;-0.10;100.00
71573;BME280;59408;51.032;9.410;2024-03-08T08:01:16;99076.25;;;-0.01;100.00
71573;BME280;59408;51.032;9.410;2024-03-08T08:03:43;99063.63;;;0.10;100.00
71573;BME280;59408;51.032;9.410;2024-03-08T08:06:10;99060.41;;;0.18;100.00
71573;BME280;59408;51.032;9.410;2024-03-08T08:08:36;99057.44;;;0.30;100.00
71573;BME280;59408;51.032;9.410;2024-03-08T08:11:03;99054.47;;;0.41;100.00
71573;BME280;59408;51.032;9.410;2024-03-08T08:13:30;99057.13;;;0.52;97.82
71573;BME280;59408;51.032;9.410;2024-03-08T08:15:56;99057.38;;;0.60;98.37
71573;BME280;59408;51.032;9.410;2024-03-08T08:18:23;99050.31;;;0.74;97.85
71573;BME280;59408;51.032;9.410;2024-03-08T08:20:51;99049.22;;;0.85;98.41
71573;BME280;59408;51.032;9.410;2024-03-08T08:23:17;99045.38;;;1.02;97.16
71573;BME280;59408;51.032;9.410;2024-03-08T08:25:43;99049.63;;;1.13;96.22
71573;BME280;59408;51.032;9.410;2024-03-08T08:28:10;99046.34;;;1.21;94.91
71573;BME280;59408;51.032;9.410;2024-03-08T08:30:36;99043.63;;;1.31;94.74
71573;BME280;59408;51.032;9.410;2024-03-08T08:33:04;99034.41;;;1.42;93.77
71573;BME280;59408;51.032;9.410;2024-03-08T08:35:30;99038.06;;;1.56;93.33
71573;BME280;59408;51.032;9.410;2024-03-08T08:37:58;99032.09;;;1.64;92.90
71573;BME280;59408;51.032;9.410;2024-03-08T08:40:25;99033.63;;;1.76;91.78
71573;BME280;59408;51.032;9.410;2024-03-08T08:42:54;99029.22;;;1.90;91.50
71573;BME280;59408;51.032;9.410;2024-03-08T08:45:20;99024.25;;;2.02;91.33
71573;BME280;59408;51.032;9.410;2024-03-08T08:47:52;99016.56;;;2.19;90.74
71573;BME280;59408;51.032;9.410;2024-03-08T08:50:18;99021.91;;;2.24;89.00
71573;BME280;59408;51.032;9.410;2024-03-08T08:52:45;99017.44;;;2.38;90.32
71573;BME280;59408;51.032;9.410;2024-03-08T08:55:13;99011.09;;;2.53;88.68
71573;BME280;59408;51.032;9.410;2024-03-08T08:57:39;99011.16;;;2.72;88.17
71573;BME280;59408;51.032;9.410;2024-03-08T09:00:07;99010.06;;;2.92;87.79
71573;BME280;59408;51.032;9.410;2024-03-08T09:02:34;99005.66;;;3.01;87.01
71573;BME280;59408;51.032;9.410;2024-03-08T09:05:01;98997.09;;;3.18;85.13
71573;BME280;59408;51.032;9.410;2024-03-08T09:07:27;98996.94;;;3.28;83.69
71573;BME280;59408;51.032;9.410;2024-03-08T09:09:54;98993.06;;;3.34;83.06
71573;BME280;59408;51.032;9.410;2024-03-08T09:12:22;98993.50;;;3.60;83.87
71573;BME280;59408;51.032;9.410;2024-03-08T09:14:48;98988.94;;;3.74;82.96
71573;BME280;59408;51.032;9.410;2024-03-08T09:17:15;98976.59;;;3.86;82.15
71573;BME280;59408;51.032;9.410;2024-03-08T09:19:41;98982.41;;;3.94;81.24
71573;BME280;59408;51.032;9.410;2024-03-08T09:22:08;98971.53;;;4.12;80.78
71573;BME280;59408;51.032;9.410;2024-03-08T09:24:34;98967.38;;;4.34;78.28
71573;BME280;59408;51.032;9.410;2024-03-08T09:27:00;98967.56;;;4.37;77.59
71573;BME280;59408;51.032;9.410;2024-03-08T09:29:28;98963.69;;;4.43;78.61
71573;BME280;59408;51.032;9.410;2024-03-08T09:31:55;98960.56;;;4.63;76.94
71573;BME280;59408;51.032;9.410;2024-03-08T09:34:21;98957.63;;;4.74;76.17
71573;BME280;59408;51.032;9.410;2024-03-08T09:36:57;98959.34;;;4.97;74.64
71573;BME280;59408;51.032;9.410;2024-03-08T09:39:24;98956.06;;;5.22;75.42
71573;BME280;59408;51.032;9.410;2024-03-08T09:41:53;98940.72;;;5.31;73.42
71573;BME280;59408;51.032;9.410;2024-03-08T09:44:19;98944.47;;;5.44;73.20
71573;BME280;59408;51.032;9.410;2024-03-08T09:46:47;98941.09;;;5.61;71.99
71573;BME280;59408;51.032;9.410;2024-03-08T09:49:13;98930.06;;;5.80;71.31
71573;BME280;59408;51.032;9.410;2024-03-08T09:51:40;98918.50;;;5.88;71.98
71573;BME280;59408;51.032;9.410;2024-03-08T09:54:06;98921.94;;;6.10;69.96
71573;BME280;59408;51.032;9.410;2024-03-08T09:56:43;98916.13;;;6.26;70.53
71573;BME280;59408;51.032;9.410;2024-03-08T09:59:09;98911.38;;;6.40;69.33
71573;BME280;59408;51.032;9.410;2024-03-08T10:01:36;98919.41;;;6.62;68.22
71573;BME280;59408;51.032;9.410;2024-03-08T10:04:04;98922.44;;;6.69;69.83
71573;BME280;59408;51.032;9.410;2024-03-08T10:06:30;98910.03;;;6.77;68.79
71573;BME280;59408;51.032;9.410;2024-03-08T10:08:57;98900.00;;;6.86;67.79
71573;BME280;59408;51.032;9.410;2024-03-08T10:11:25;98899.19;;;7.11;66.99
71573;BME280;59408;51.032;9.410;2024-03-08T10:13:52;98901.78;;;7.34;63.82
71573;BME280;59408;51.032;9.410;2024-03-08T10:16:18;98900.81;;;7.38;65.46
71573;BME280;59408;51.032;9.410;2024-03-08T10:18:45;98894.88;;;7.71;63.23
71573;BME280;59408;51.032;9.410;2024-03-08T10:21:13;98893.72;;;7.80;62.52
71573;BME280;59408;51.032;9.410;2024-03-08T10:23:40;98886.19;;;7.86;63.09
71573;BME280;59408;51.032;9.410;2024-03-08T10:26:11;98881.81;;;8.02;62.39
71573;BME280;59408;51.032;9.410;2024-03-08T10:28:37;98873.63;;;8.11;61.42
71573;BME280;59408;51.032;9.410;2024-03-08T10:31:04;98867.16;;;8.32;62.24
71573;BME280;59408;51.032;9.410;2024-03-08T10:33:30;98871.94;;;8.35;60.95
71573;BME280;59408;51.032;9.410;2024-03-08T10:35:57;98868.63;;;8.51;60.25
71573;BME280;59408;51.032;9.410;2024-03-08T10:38:26;98869.59;;;8.55;60.08
71573;BME280;59408;51.032;9.410;2024-03-08T10:40:53;98861.50;;;8.67;60.21
71573;BME280;59408;51.032;9.410;2024-03-08T10:43:23;98864.63;;;8.98;59.52
71573;BME280;59408;51.032;9.410;2024-03-08T10:46:03;98849.75;;;8.96;59.10
71573;BME280;59408;51.032;9.410;2024-03-08T10:48:38;98856.94;;;9.21;58.67
71573;BME280;59408;51.032;9.410;2024-03-08T10:51:07;98854.91;;;9.51;55.77
71573;BME280;59408;51.032;9.410;2024-03-08T10:53:37;98861.72;;;9.57;56.45
71573;BME280;59408;51.032;9.410;2024-03-08T10:56:04;98844.47;;;9.65;55.28
71573;BME280;59408;51.032;9.410;2024-03-08T10:58:31;98849.06;;;9.73;56.24
71573;BME280;59408;51.032;9.410;2024-03-08T11:00:58;98837.84;;;9.99;55.47
71573;BME280;59408;51.032;9.410;2024-03-08T11:03:49;98836.16;;;10.19;54.96
71573;BME280;59408;51.032;9.410;2024-03-08T11:06:17;98820.34;;;10.12;55.66
71573;BME280;59408;51.032;9.410;2024-03-08T11:08:46;98833.41;;;10.31;53.09
71573;BME280;59408;51.032;9.410;2024-03-08T11:11:33;98822.06;;;10.41;53.57
71573;BME280;59408;51.032;9.410;2024-03-08T11:14:01;98828.03;;;10.59;52.80
71573;BME280;59408;51.032;9.410;2024-03-08T11:16:38;98827.25;;;10.58;53.74
71573;BME280;59408;51.032;9.410;2024-03-08T11:19:06;98815.50;;;10.18;52.51
71573;BME280;59408;51.032;9.410;2024-03-08T11:21:33;98822.16;;;10.45;53.39
71573;BME280;59408;51.032;9.410;2024-03-08T11:24:01;98812.06;;;9.84;55.63
71573;BME280;59408;51.032;9.410;2024-03-08T11:26:29;98810.66;;;9.66;55.18
71573;BME280;59408;51.032;9.410;2024-03-08T11:29:35;98798.91;;;9.99;56.61
71573;BME280;59408;51.032;9.410;2024-03-08T11:32:07;98792.94;;;10.57;56.41
71573;BME280;59408;51.032;9.410;2024-03-08T11:34:34;98794.34;;;10.91;52.91
71573;BME280;59408;51.032;9.410;2024-03-08T11:37:03;98787.13;;;10.83;54.52
71573;BME280;59408;51.032;9.410;2024-03-08T11:39:31;98793.59;;;11.07;52.92
71573;BME280;59408;51.032;9.410;2024-03-08T11:41:58;98778.84;;;11.23;55.18
71573;BME280;59408;51.032;9.410;2024-03-08T11:44:26;98774.25;;;11.55;52.00
71573;BME280;59408;51.032;9.410;2024-03-08T11:46:53;98783.03;;;11.49;51.83
71573;BME280;59408;51.032;9.410;2024-03-08T11:49:20;98763.94;;;11.21;52.49
71573;BME280;59408;51.032;9.410;2024-03-08T11:51:46;98782.59;;;11.47;51.63
71573;BME280;59408;51.032;9.410;2024-03-08T11:54:13;98760.03;;;11.50;50.74
71573;BME280;59408;51.032;9.410;2024-03-08T11:56:41;98759.16;;;11.93;51.16
71573;BME280;59408;51.032;9.410;2024-03-08T11:59:11;98762.59;;;11.90;50.08
71573;BME280;59408;51.032;9.410;2024-03-08T12:01:38;98777.53;;;11.17;51.36
71573;BME280;59408;51.032;9.410;2024-03-08T12:04:04;98759.44;;;11.13;51.70
71573;BME280;59408;51.032;9.410;2024-03-08T12:06:36;98757.97;;;11.31;52.28
71573;BME280;59408;51.032;9.410;2024-03-08T12:09:03;98756.25;;;11.54;52.05
71573;BME280;59408;51.032;9.410;2024-03-08T12:11:29;98748.41;;;11.37;50.04
71573;BME280;59408;51.032;9.410;2024-03-08T12:14:00;98743.66;;;11.50;53.81
71573;BME280;59408;51.032;9.410;2024-03-08T12:16:27;98743.00;;;12.19;51.71
71573;BME280;59408;51.032;9.410;2024-03-08T12:18:54;98741.22;;;12.11;51.26
71573;BME280;59408;51.032;9.410;2024-03-08T12:21:21;98729.94;;;12.47;51.12
71573;BME280;59408;51.032;9.410;2024-03-08T12:23:47;98731.34;;;12.22;50.16
71573;BME280;59408;51.032;9.410;2024-03-08T12:26:15;98730.19;;;12.23;51.14
71573;BME280;59408;51.032;9.410;2024-03-08T12:28:43;98733.97;;;12.34;51.51
71573;BME280;59408;51.032;9.410;2024-03-08T12:31:16;98726.19;;;12.36;50.56
71573;BME280;59408;51.032;9.410;2024-03-08T12:33:49;98718.41;;;12.58;50.29
71573;BME280;59408;51.032;9.410;2024-03-08T12:36:18;98708.63;;;12.76;50.13
71573;BME280;59408;51.032;9.410;2024-03-08T12:38:44;98713.16;;;12.88;50.03
71573;BME280;59408;51.032;9.410;2024-03-08T12:41:11;98711.09;;;12.62;49.21
71573;BME280;59408;51.032;9.410;2024-03-08T12:43:37;98706.84;;;12.83;50.06
71573;BME280;59408;51.032;9.410;2024-03-08T12:46:04;98703.81;;;13.11;49.16
71573;BME280;59408;51.032;9.410;2024-03-08T12:48:35;98696.38;;;12.89;50.00
71573;BME280;59408;51.032;9.410;2024-03-08T12:51:01;98693.31;;;13.13;50.02
71573;BME280;59408;51.032;9.410;2024-03-08T12:53:28;98691.97;;;12.84;50.28
71573;BME280;59408;51.032;9.410;2024-03-08T12:55:54;98682.72;;;13.12;49.38